sensor_id;sensor_type;location;lat;lon;timestamp;temperature;humidity
38854;DHT22;24606;51.992;4.198;2023-03-14T00:01:48;11.30;99.90
38854;DHT22;24606;51.992;4.198;2023-03-14T00:06:50;11.30;99.90
38854;DHT22;24606;51.992;4.198;2023-03-14T00:11:52;11.50;99.90
38854;DHT22;24606;51.992;4.198;2023-03-14T00:16:55;11.10;99.90
38854;DHT22;24606;51.992;4.198;2023-03-14T00:21:57;10.80;99.90
38854;DHT22;24606;51.992;4.198;2023-03-14T00:26:59;11.10;99.90
38854;DHT22;24606;51.992;4.198;2023-03-14T00:32:03;11.00;99.90
38854;DHT22;24606;51.992;4.198;2023-03-14T00:37:05;10.90;99.90
38854;DHT22;24606;51.992;4.198;2023-03-14T00:42:07;10.80;99.90
38854;DHT22;24606;51.992;4.198;2023-03-14T00:47:10;10.90;99.90
38854;DHT22;24606;51.992;4.198;2023-03-14T00:52:12;10.70;99.90
38854;DHT22;24606;51.992;4.198;2023-03-14T00:57:14;10.40;99.90
38854;DHT22;24606;51.992;4.198;2023-03-14T01:02:17;10.80;99.90
38854;DHT22;24606;51.992;4.198;2023-03-14T01:07:19;10.40;99.90
38854;DHT22;24606;51.992;4.198;2023-03-14T01:12:21;10.40;99.90
38854;DHT22;24606;51.992;4.198;2023-03-14T01:17:24;10.50;99.90
38854;DHT22;24606;51.992;4.198;2023-03-14T01:22:26;11.10;99.90
38854;DHT22;24606;51.992;4.198;2023-03-14T01:27:28;10.80;99.90
38854;DHT22;24606;51.992;4.198;2023-03-14T01:32:31;10.90;99.90
38854;DHT22;24606;51.992;4.198;2023-03-14T01:37:33;11.00;99.90
38854;DHT22;24606;51.992;4.198;2023-03-14T01:42:35;10.80;99.90
38854;DHT22;24606;51.992;4.198;2023-03-14T01:47:38;11.00;99.90
38854;DHT22;24606;51.992;4.198;2023-03-14T01:52:43;11.10;99.90
38854;DHT22;24606;51.992;4.198;2023-03-14T01:57:49;11.20;99.90
38854;DHT22;24606;51.992;4.198;2023-03-14T02:02:56;11.50;99.90
38854;DHT22;24606;51.992;4.198;2023-03-14T02:08:00;11.40;99.90
38854;DHT22;24606;51.992;4.198;2023-03-14T02:13:03;11.30;99.90
38854;DHT22;24606;51.992;4.198;2023-03-14T02:18:07;11.30;99.90
38854;DHT22;24606;51.992;4.198;2023-03-14T02:23:10;10.90;99.90
38854;DHT22;24606;51.992;4.198;2023-03-14T02:28:14;11.10;99.90
38854;DHT22;24606;51.992;4.198;2023-03-14T02:33:19;11.20;99.90
38854;DHT22;24606;51.992;4.198;2023-03-14T02:38:25;11.40;99.90
38854;DHT22;24606;51.992;4.198;2023-03-14T02:43:31;11.20;99.90
38854;DHT22;24606;51.992;4.198;2023-03-14T02:48:35;11.00;99.90
38854;DHT22;24606;51.992;4.198;2023-03-14T02:53:40;10.90;99.90
38854;DHT22;24606;51.992;4.198;2023-03-14T02:58:44;10.90;99.90
38854;DHT22;24606;51.992;4.198;2023-03-14T03:03:46;11.40;99.90
38854;DHT22;24606;51.992;4.198;2023-03-14T03:08:48;10.90;99.90
38854;DHT22;24606;51.992;4.198;2023-03-14T03:13:51;11.00;99.90
38854;DHT22;24606;51.992;4.198;2023-03-14T03:18:53;10.80;99.90
38854;DHT22;24606;51.992;4.198;2023-03-14T03:23:55;10.60;99.90
38854;DHT22;24606;51.992;4.198;2023-03-14T03:28:58;10.80;99.90
38854;DHT22;24606;51.992;4.198;2023-03-14T03:34:00;11.20;99.90
38854;DHT22;24606;51.992;4.198;2023-03-14T03:39:02;11.30;99.90
38854;DHT22;24606;51.992;4.198;2023-03-14T03:44:05;10.60;99.90
38854;DHT22;24606;51.992;4.198;2023-03-14T03:49:07;11.50;99.90
38854;DHT22;24606;51.992;4.198;2023-03-14T03:54:09;11.10;99.90
38854;DHT22;24606;51.992;4.198;2023-03-14T03:59:12;10.80;99.90
38854;DHT22;24606;51.992;4.198;2023-03-14T04:04:14;10.50;99.90
38854;DHT22;24606;51.992;4.198;2023-03-14T04:09:16;10.50;99.90
38854;DHT22;24606;51.992;4.198;2023-03-14T04:14:20;10.40;99.90
38854;DHT22;24606;51.992;4.198;2023-03-14T04:19:22;10.30;99.90
38854;DHT22;24606;51.992;4.198;2023-03-14T04:24:24;10.60;99.90
38854;DHT22;24606;51.992;4.198;2023-03-14T04:29:27;10.60;99.90
38854;DHT22;24606;51.992;4.198;2023-03-14T04:34:29;10.20;99.90
38854;DHT22;24606;51.992;4.198;2023-03-14T04:39:31;10.50;99.90
38854;DHT22;24606;51.992;4.198;2023-03-14T04:44:34;10.50;99.90
38854;DHT22;24606;51.992;4.198;2023-03-14T04:49:36;10.20;99.90
38854;DHT22;24606;51.992;4.198;2023-03-14T04:54:38;10.00;99.90
38854;DHT22;24606;51.992;4.198;2023-03-14T04:59:41;10.70;99.90
38854;DHT22;24606;51.992;4.198;2023-03-14T05:04:43;10.40;99.90
38854;DHT22;24606;51.992;4.198;2023-03-14T05:09:45;10.50;99.90
38854;DHT22;24606;51.992;4.198;2023-03-14T05:14:48;9.00;99.90
38854;DHT22;24606;51.992;4.198;2023-03-14T05:19:50;9.30;99.90
38854;DHT22;24606;51.992;4.198;2023-03-14T05:24:52;9.00;99.90
38854;DHT22;24606;51.992;4.198;2023-03-14T05:29:58;9.20;99.90
38854;DHT22;24606;51.992;4.198;2023-03-14T05:35:00;8.90;99.90
38854;DHT22;24606;51.992;4.198;2023-03-14T05:40:02;8.60;99.90
38854;DHT22;24606;51.992;4.198;2023-03-14T05:45:06;8.50;99.90
38854;DHT22;24606;51.992;4.198;2023-03-14T05:50:09;9.10;99.90
38854;DHT22;24606;51.992;4.198;2023-03-14T05:55:11;9.00;99.90
38854;DHT22;24606;51.992;4.198;2023-03-14T06:00:15;9.80;99.90
38854;DHT22;24606;51.992;4.198;2023-03-14T06:05:17;8.50;99.90
38854;DHT22;24606;51.992;4.198;2023-03-14T06:10:19;9.80;99.90
38854;DHT22;24606;51.992;4.198;2023-03-14T06:15:22;7.80;99.90
38854;DHT22;24606;51.992;4.198;2023-03-14T06:20:24;8.30;99.90
38854;DHT22;24606;51.992;4.198;2023-03-14T06:25:26;8.30;99.90
38854;DHT22;24606;51.992;4.198;2023-03-14T06:30:29;8.10;99.90
38854;DHT22;24606;51.992;4.198;2023-03-14T06:35:31;8.10;99.90
38854;DHT22;24606;51.992;4.198;2023-03-14T06:40:33;8.00;99.90
38854;DHT22;24606;51.992;4.198;2023-03-14T06:45:36;8.00;99.90
38854;DHT22;24606;51.992;4.198;2023-03-14T06:50:38;7.90;99.90
38854;DHT22;24606;51.992;4.198;2023-03-14T06:55:40;8.10;99.90
38854;DHT22;24606;51.992;4.198;2023-03-14T07:00:44;8.00;99.90
38854;DHT22;24606;51.992;4.198;2023-03-14T07:15:27;9.60;99.90
38854;DHT22;24606;51.992;4.198;2023-03-14T07:20:29;9.80;99.90
38854;DHT22;24606;51.992;4.198;2023-03-14T07:25:32;8.60;99.90
38854;DHT22;24606;51.992;4.198;2023-03-14T07:30:36;9.80;99.90
38854;DHT22;24606;51.992;4.198;2023-03-14T07:35:37;9.80;99.90
38854;DHT22;24606;51.992;4.198;2023-03-14T07:40:39;9.70;99.90
38854;DHT22;24606;51.992;4.198;2023-03-14T07:45:45;10.20;99.90
38854;DHT22;24606;51.992;4.198;2023-03-14T07:50:48;12.60;99.90
38854;DHT22;24606;51.992;4.198;2023-03-14T07:55:51;12.50;99.90
38854;DHT22;24606;51.992;4.198;2023-03-14T08:00:54;12.40;99.90
38854;DHT22;24606;51.992;4.198;2023-03-14T08:05:56;12.60;99.90
38854;DHT22;24606;51.992;4.198;2023-03-14T08:11:02;13.30;99.90
38854;DHT22;24606;51.992;4.198;2023-03-14T08:16:07;13.50;99.90
38854;DHT22;24606;51.992;4.198;2023-03-14T08:21:09;12.90;99.90
38854;DHT22;24606;51.992;4.198;2023-03-14T08:26:11;14.00;99.90
38854;DHT22;24606;51.992;4.198;2023-03-14T08:31:14;14.40;99.90
38854;DHT22;24606;51.992;4.198;2023-03-14T08:36:16;13.40;99.90
38854;DHT22;24606;51.992;4.198;2023-03-14T08:41:18;13.70;94.70
38854;DHT22;24606;51.992;4.198;2023-03-14T08:46:21;12.30;96.00
38854;DHT22;24606;51.992;4.198;2023-03-14T08:51:23;13.80;99.90
38854;DHT22;24606;51.992;4.198;2023-03-14T08:56:25;13.80;99.90
38854;DHT22;24606;51.992;4.198;2023-03-14T09:01:28;13.10;99.90
38854;DHT22;24606;51.992;4.198;2023-03-14T09:06:30;13.00;99.90
38854;DHT22;24606;51.992;4.198;2023-03-14T09:11:32;13.70;99.90
38854;DHT22;24606;51.992;4.198;2023-03-14T09:16:35;13.30;99.90
38854;DHT22;24606;51.992;4.198;2023-03-14T09:21:37;14.70;99.90
38854;DHT22;24606;51.992;4.198;2023-03-14T09:26:39;13.20;99.90
38854;DHT22;24606;51.992;4.198;2023-03-14T09:31:42;12.80;99.90
38854;DHT22;24606;51.992;4.198;2023-03-14T09:36:44;13.60;99.90
38854;DHT22;24606;51.992;4.198;2023-03-14T09:41:48;13.30;99.90
38854;DHT22;24606;51.992;4.198;2023-03-14T09:46:53;13.00;99.90
38854;DHT22;24606;51.992;4.198;2023-03-14T09:51:58;14.10;99.90
38854;DHT22;24606;51.992;4.198;2023-03-14T09:57:02;15.00;99.90
38854;DHT22;24606;51.992;4.198;2023-03-14T10:02:15;13.40;99.90
38854;DHT22;24606;51.992;4.198;2023-03-14T10:07:21;14.80;99.90
38854;DHT22;24606;51.992;4.198;2023-03-14T10:12:31;13.60;99.90
38854;DHT22;24606;51.992;4.198;2023-03-14T10:17:40;14.10;99.90
38854;DHT22;24606;51.992;4.198;2023-03-14T10:22:43;12.80;99.90
38854;DHT22;24606;51.992;4.198;2023-03-14T10:27:46;13.00;99.90
38854;DHT22;24606;51.992;4.198;2023-03-14T10:32:49;13.00;99.90
38854;DHT22;24606;51.992;4.198;2023-03-14T10:37:53;13.60;99.90
38854;DHT22;24606;51.992;4.198;2023-03-14T10:42:58;13.20;99.90
38854;DHT22;24606;51.992;4.198;2023-03-14T10:48:20;13.40;99.90
38854;DHT22;24606;51.992;4.198;2023-03-14T10:53:23;13.20;99.90
38854;DHT22;24606;51.992;4.198;2023-03-14T10:58:26;13.80;98.40
38854;DHT22;24606;51.992;4.198;2023-03-14T11:03:31;13.10;92.10
38854;DHT22;24606;51.992;4.198;2023-03-14T11:08:39;13.00;99.90
38854;DHT22;24606;51.992;4.198;2023-03-14T11:13:56;11.20;99.90
38854;DHT22;24606;51.992;4.198;2023-03-14T11:19:21;12.80;91.50
38854;DHT22;24606;51.992;4.198;2023-03-14T11:24:41;12.40;99.90
38854;DHT22;24606;51.992;4.198;2023-03-14T11:29:54;13.20;99.90
38854;DHT22;24606;51.992;4.198;2023-03-14T11:34:59;13.00;97.70
38854;DHT22;24606;51.992;4.198;2023-03-14T11:40:12;13.10;69.40
38854;DHT22;24606;51.992;4.198;2023-03-14T11:45:17;13.50;73.60
38854;DHT22;24606;51.992;4.198;2023-03-14T11:50:25;13.20;99.90
38854;DHT22;24606;51.992;4.198;2023-03-14T11:55:32;13.30;99.90
38854;DHT22;24606;51.992;4.198;2023-03-14T12:00:34;12.60;99.90
38854;DHT22;24606;51.992;4.198;2023-03-14T12:05:45;12.80;99.90
38854;DHT22;24606;51.992;4.198;2023-03-14T12:10:50;14.10;87.90
38854;DHT22;24606;51.992;4.198;2023-03-14T12:15:55;13.40;99.90
38854;DHT22;24606;51.992;4.198;2023-03-14T12:21:01;12.40;65.60
38854;DHT22;24606;51.992;4.198;2023-03-14T12:26:15;14.40;99.80
38854;DHT22;24606;51.992;4.198;2023-03-14T12:31:41;14.70;88.90
38854;DHT22;24606;51.992;4.198;2023-03-14T12:37:00;12.80;99.90
38854;DHT22;24606;51.992;4.198;2023-03-14T12:42:04;12.60;98.30
38854;DHT22;24606;51.992;4.198;2023-03-14T12:58:28;12.40;89.80
38854;DHT22;24606;51.992;4.198;2023-03-14T13:03:40;12.30;99.90
38854;DHT22;24606;51.992;4.198;2023-03-14T13:08:47;13.50;99.90
38854;DHT22;24606;51.992;4.198;2023-03-14T13:13:56;13.20;89.90
38854;DHT22;24606;51.992;4.198;2023-03-14T13:19:02;11.50;77.20
38854;DHT22;24606;51.992;4.198;2023-03-14T13:24:17;11.70;97.60
38854;DHT22;24606;51.992;4.198;2023-03-14T13:29:22;11.50;96.30
38854;DHT22;24606;51.992;4.198;2023-03-14T13:34:25;11.00;99.90
38854;DHT22;24606;51.992;4.198;2023-03-14T13:39:29;11.20;94.10
38854;DHT22;24606;51.992;4.198;2023-03-14T13:44:33;11.80;79.80
38854;DHT22;24606;51.992;4.198;2023-03-14T13:49:37;12.20;95.90
38854;DHT22;24606;51.992;4.198;2023-03-14T13:54:40;12.90;91.40
38854;DHT22;24606;51.992;4.198;2023-03-14T13:59:42;12.20;99.90
38854;DHT22;24606;51.992;4.198;2023-03-14T14:04:44;13.20;99.90
38854;DHT22;24606;51.992;4.198;2023-03-14T14:09:50;10.30;84.60
38854;DHT22;24606;51.992;4.198;2023-03-14T14:14:55;10.60;61.00
38854;DHT22;24606;51.992;4.198;2023-03-14T14:19:59;11.30;76.30
38854;DHT22;24606;51.992;4.198;2023-03-14T14:25:03;10.40;68.70
38854;DHT22;24606;51.992;4.198;2023-03-14T14:30:21;12.30;99.90
38854;DHT22;24606;51.992;4.198;2023-03-14T14:35:31;11.50;81.90
38854;DHT22;24606;51.992;4.198;2023-03-14T14:40:43;12.30;98.50
38854;DHT22;24606;51.992;4.198;2023-03-14T14:45:48;11.00;65.20
38854;DHT22;24606;51.992;4.198;2023-03-14T14:50:57;11.00;60.70
38854;DHT22;24606;51.992;4.198;2023-03-14T14:56:06;11.50;99.90
38854;DHT22;24606;51.992;4.198;2023-03-14T15:01:15;11.40;65.20
38854;DHT22;24606;51.992;4.198;2023-03-14T15:06:18;12.70;67.00
38854;DHT22;24606;51.992;4.198;2023-03-14T15:11:22;11.60;99.90
38854;DHT22;24606;51.992;4.198;2023-03-14T15:16:27;10.90;61.60
38854;DHT22;24606;51.992;4.198;2023-03-14T15:21:29;11.20;99.90
38854;DHT22;24606;51.992;4.198;2023-03-14T15:26:33;10.60;64.40
38854;DHT22;24606;51.992;4.198;2023-03-14T15:31:35;10.80;56.60
38854;DHT22;24606;51.992;4.198;2023-03-14T15:36:37;12.00;99.00
38854;DHT22;24606;51.992;4.198;2023-03-14T15:41:42;11.60;55.60
38854;DHT22;24606;51.992;4.198;2023-03-14T15:46:44;11.10;96.60
38854;DHT22;24606;51.992;4.198;2023-03-14T15:51:46;11.50;99.90
38854;DHT22;24606;51.992;4.198;2023-03-14T15:56:49;11.10;67.50
38854;DHT22;24606;51.992;4.198;2023-03-14T16:01:52;11.10;99.90
38854;DHT22;24606;51.992;4.198;2023-03-14T16:06:54;11.90;96.80
38854;DHT22;24606;51.992;4.198;2023-03-14T16:11:57;9.80;61.20
38854;DHT22;24606;51.992;4.198;2023-03-14T16:16:59;12.00;69.90
38854;DHT22;24606;51.992;4.198;2023-03-14T16:22:01;11.80;62.00
38854;DHT22;24606;51.992;4.198;2023-03-14T16:27:05;11.30;85.80
38854;DHT22;24606;51.992;4.198;2023-03-14T16:32:07;11.40;57.80
38854;DHT22;24606;51.992;4.198;2023-03-14T16:37:09;12.20;91.50
38854;DHT22;24606;51.992;4.198;2023-03-14T16:42:12;12.20;97.50
38854;DHT22;24606;51.992;4.198;2023-03-14T16:47:14;12.90;66.00
38854;DHT22;24606;51.992;4.198;2023-03-14T16:52:16;13.40;62.60
38854;DHT22;24606;51.992;4.198;2023-03-14T16:57:19;12.20;55.70
38854;DHT22;24606;51.992;4.198;2023-03-14T17:02:21;13.10;99.90
38854;DHT22;24606;51.992;4.198;2023-03-14T17:07:23;12.50;61.40
38854;DHT22;24606;51.992;4.198;2023-03-14T17:12:27;12.80;88.20
38854;DHT22;24606;51.992;4.198;2023-03-14T17:17:29;12.40;71.40
38854;DHT22;24606;51.992;4.198;2023-03-14T17:22:30;14.60;69.20
38854;DHT22;24606;51.992;4.198;2023-03-14T17:27:34;13.70;92.40
38854;DHT22;24606;51.992;4.198;2023-03-14T17:32:36;13.50;58.90
38854;DHT22;24606;51.992;4.198;2023-03-14T17:37:37;14.90;85.40
38854;DHT22;24606;51.992;4.198;2023-03-14T17:42:41;16.10;93.60
38854;DHT22;24606;51.992;4.198;2023-03-14T17:47:43;15.30;92.40
38854;DHT22;24606;51.992;4.198;2023-03-14T17:52:45;17.70;84.20
38854;DHT22;24606;51.992;4.198;2023-03-14T17:57:48;17.60;83.80
38854;DHT22;24606;51.992;4.198;2023-03-14T18:02:50;17.60;82.90
38854;DHT22;24606;51.992;4.198;2023-03-14T18:07:52;15.90;55.20
38854;DHT22;24606;51.992;4.198;2023-03-14T18:12:55;16.70;90.80
38854;DHT22;24606;51.992;4.198;2023-03-14T18:17:57;17.70;84.70
38854;DHT22;24606;51.992;4.198;2023-03-14T18:22:59;17.10;91.10
38854;DHT22;24606;51.992;4.198;2023-03-14T18:28:02;16.00;94.80
38854;DHT22;24606;51.992;4.198;2023-03-14T18:33:04;16.20;94.30
38854;DHT22;24606;51.992;4.198;2023-03-14T18:38:06;15.10;65.00
38854;DHT22;24606;51.992;4.198;2023-03-14T18:43:09;13.30;54.30
38854;DHT22;24606;51.992;4.198;2023-03-14T18:48:11;11.10;92.50
38854;DHT22;24606;51.992;4.198;2023-03-14T18:53:13;14.30;99.90
38854;DHT22;24606;51.992;4.198;2023-03-14T18:58:16;16.90;92.00
38854;DHT22;24606;51.992;4.198;2023-03-14T19:03:23;14.60;99.10
38854;DHT22;24606;51.992;4.198;2023-03-14T19:08:27;16.60;92.50
38854;DHT22;24606;51.992;4.198;2023-03-14T19:13:31;16.30;90.00
38854;DHT22;24606;51.992;4.198;2023-03-14T19:18:34;13.60;95.60
38854;DHT22;24606;51.992;4.198;2023-03-14T19:23:37;12.80;95.80
38854;DHT22;24606;51.992;4.198;2023-03-14T19:28:41;10.70;99.90
38854;DHT22;24606;51.992;4.198;2023-03-14T19:33:43;10.60;87.00
38854;DHT22;24606;51.992;4.198;2023-03-14T19:38:44;13.30;99.90
38854;DHT22;24606;51.992;4.198;2023-03-14T19:43:48;11.10;86.80
38854;DHT22;24606;51.992;4.198;2023-03-14T19:48:50;9.60;99.90
38854;DHT22;24606;51.992;4.198;2023-03-14T19:53:54;10.40;99.90
38854;DHT22;24606;51.992;4.198;2023-03-14T19:58:58;9.90;97.90
38854;DHT22;24606;51.992;4.198;2023-03-14T20:04:03;8.60;99.90
38854;DHT22;24606;51.992;4.198;2023-03-14T20:09:05;8.50;97.20
38854;DHT22;24606;51.992;4.198;2023-03-14T20:14:14;9.60;99.90
38854;DHT22;24606;51.992;4.198;2023-03-14T20:19:17;9.50;99.90
38854;DHT22;24606;51.992;4.198;2023-03-14T20:24:19;11.00;99.90
38854;DHT22;24606;51.992;4.198;2023-03-14T20:29:24;8.90;99.90
38854;DHT22;24606;51.992;4.198;2023-03-14T20:34:26;9.60;98.50
38854;DHT22;24606;51.992;4.198;2023-03-14T20:39:31;9.90;99.90
38854;DHT22;24606;51.992;4.198;2023-03-14T20:44:35;10.10;88.90
38854;DHT22;24606;51.992;4.198;2023-03-14T20:49:36;10.90;99.90
38854;DHT22;24606;51.992;4.198;2023-03-14T20:54:38;10.10;99.90
38854;DHT22;24606;51.992;4.198;2023-03-14T20:59:42;11.10;95.10
38854;DHT22;24606;51.992;4.198;2023-03-14T21:04:44;9.30;99.90
38854;DHT22;24606;51.992;4.198;2023-03-14T21:09:46;8.40;99.90
38854;DHT22;24606;51.992;4.198;2023-03-14T21:14:49;8.60;99.90
38854;DHT22;24606;51.992;4.198;2023-03-14T21:19:51;6.80;99.90
38854;DHT22;24606;51.992;4.198;2023-03-14T21:24:57;7.00;99.90
38854;DHT22;24606;51.992;4.198;2023-03-14T21:30:01;6.80;99.90
38854;DHT22;24606;51.992;4.198;2023-03-14T21:35:02;6.00;99.90
38854;DHT22;24606;51.992;4.198;2023-03-14T21:40:05;7.70;99.90
38854;DHT22;24606;51.992;4.198;2023-03-14T21:45:10;5.90;99.90
38854;DHT22;24606;51.992;4.198;2023-03-14T21:50:13;6.20;99.90
38854;DHT22;24606;51.992;4.198;2023-03-14T21:55:16;7.50;99.90
38854;DHT22;24606;51.992;4.198;2023-03-14T22:00:20;8.30;99.90
38854;DHT22;24606;51.992;4.198;2023-03-14T22:05:22;7.00;99.90
38854;DHT22;24606;51.992;4.198;2023-03-14T22:10:24;6.80;99.90
38854;DHT22;24606;51.992;4.198;2023-03-14T22:15:27;9.20;99.90
38854;DHT22;24606;51.992;4.198;2023-03-14T22:20:29;8.10;99.90
38854;DHT22;24606;51.992;4.198;2023-03-14T22:25:31;7.60;99.90
38854;DHT22;24606;51.992;4.198;2023-03-14T22:30:34;8.30;99.90
38854;DHT22;24606;51.992;4.198;2023-03-14T22:35:36;6.60;99.90
38854;DHT22;24606;51.992;4.198;2023-03-14T22:40:38;5.90;99.90
38854;DHT22;24606;51.992;4.198;2023-03-14T22:45:41;8.10;99.90
38854;DHT22;24606;51.992;4.198;2023-03-14T22:50:43;8.80;99.90
38854;DHT22;24606;51.992;4.198;2023-03-14T22:55:45;8.80;99.90
38854;DHT22;24606;51.992;4.198;2023-03-14T23:00:48;10.30;99.90
38854;DHT22;24606;51.992;4.198;2023-03-14T23:05:51;12.20;99.90
38854;DHT22;24606;51.992;4.198;2023-03-14T23:10:59;11.70;99.90
38854;DHT22;24606;51.992;4.198;2023-03-14T23:16:03;9.20;99.90
38854;DHT22;24606;51.992;4.198;2023-03-14T23:21:10;9.80;99.90
38854;DHT22;24606;51.992;4.198;2023-03-14T23:26:14;10.50;99.90
38854;DHT22;24606;51.992;4.198;2023-03-14T23:31:18;8.80;99.90
38854;DHT22;24606;51.992;4.198;2023-03-14T23:36:20;9.20;99.90
38854;DHT22;24606;51.992;4.198;2023-03-14T23:41:22;8.70;99.90
38854;DHT22;24606;51.992;4.198;2023-03-14T23:46:26;6.20;99.90
38854;DHT22;24606;51.992;4.198;2023-03-14T23:51:28;11.10;99.90
38854;DHT22;24606;51.992;4.198;2023-03-14T23:56:29;10.50;98.70
